createdAt,value
2024-02-27T01:28:01.983Z,87.48
2024-02-27T01:38:01.863Z,88.03
2024-02-27T01:39:01.869Z,88.03
2024-02-27T01:40:01.841Z,88.03
2024-02-27T01:41:01.831Z,88.24
2024-02-27T01:42:01.862Z,88.14
2024-02-27T01:43:01.827Z,88.03
2024-02-27T01:44:01.843Z,87.93
2024-02-27T01:45:01.879Z,88.03
2024-02-27T01:46:01.798Z,88.24
2024-02-27T01:48:01.901Z,88.45
2024-02-27T01:49:01.836Z,88.45
2024-02-27T01:50:01.738Z,88.09
2024-02-27T01:51:01.756Z,88.14
2024-02-27T01:52:01.730Z,88.14
2024-02-27T01:53:01.725Z,88.03
2024-02-27T01:54:01.714Z,88.14
2024-02-27T01:55:01.685Z,88.03
2024-02-27T01:56:01.677Z,88.34
2024-02-27T01:57:01.705Z,88.34
2024-02-27T01:58:01.643Z,88.24
2024-02-27T01:59:01.670Z,88.03
2024-02-27T02:00:01.709Z,88.03
2024-02-27T02:01:01.788Z,88.14
2024-02-27T02:02:01.635Z,88.03
2024-02-27T02:03:01.649Z,87.93
2024-02-27T02:04:01.641Z,87.93
2024-02-27T02:05:01.583Z,87.82
2024-02-27T02:06:01.636Z,88.03
2024-02-27T02:07:01.593Z,88.24
2024-02-27T02:08:01.547Z,88.14
2024-02-27T02:09:01.549Z,88.03
2024-02-27T02:10:01.517Z,88.09
2024-02-27T02:11:01.604Z,88.20
2024-02-27T02:12:01.599Z,88.20
2024-02-27T02:13:01.489Z,87.89
2024-02-27T02:14:01.476Z,87.99
2024-02-27T02:16:01.462Z,88.20
2024-02-27T02:17:01.478Z,87.99
2024-02-27T02:18:01.539Z,87.68
2024-02-27T02:19:01.558Z,87.58
2024-02-27T02:20:01.570Z,87.58
2024-02-27T02:22:01.393Z,87.89
2024-02-27T02:23:01.380Z,87.99
2024-02-27T02:24:01.524Z,87.79
2024-02-27T02:25:01.373Z,87.89
2024-02-27T02:26:01.388Z,87.89
2024-02-27T02:29:01.313Z,87.62
2024-02-27T02:31:01.297Z,87.72
2024-02-27T02:32:01.292Z,87.82
2024-02-27T02:34:01.443Z,87.82
2024-02-27T02:36:01.256Z,87.62
2024-02-27T02:38:01.216Z,87.82
2024-02-27T02:39:01.265Z,88.03
2024-02-27T02:40:01.196Z,88.09
2024-02-27T02:41:01.189Z,88.09
2024-02-27T02:43:01.157Z,87.89
2024-02-27T02:45:01.183Z,87.89
2024-02-27T02:46:01.131Z,88.09
2024-02-27T02:48:01.317Z,87.79
2024-02-27T02:50:01.128Z,87.89
2024-02-27T02:51:01.136Z,87.72
2024-02-27T02:54:01.086Z,87.68
2024-02-27T02:56:01.111Z,87.79
2024-02-27T02:57:01.034Z,87.79
2024-02-27T02:58:01.001Z,87.89
2024-02-27T03:02:00.967Z,87.99
2024-02-27T03:04:00.974Z,87.99
2024-02-27T03:06:01.046Z,88.20
2024-02-27T03:07:01.005Z,88.45
2024-02-27T03:09:00.909Z,88.65
2024-02-27T03:10:00.866Z,88.34
2024-02-27T03:12:00.857Z,88.75
2024-02-27T03:13:00.842Z,88.75
2024-02-27T03:14:00.836Z,88.86
2024-02-27T03:15:00.853Z,88.86
2024-02-27T03:16:00.805Z,88.65
2024-02-27T03:17:00.789Z,89.06
2024-02-27T03:18:00.943Z,89.17
2024-02-27T03:19:00.833Z,89.06
2024-02-27T03:20:00.776Z,88.96
2024-02-27T03:21:00.788Z,88.96
2024-02-27T03:22:00.749Z,89.27
2024-02-27T03:23:00.731Z,89.06
2024-02-27T03:24:00.770Z,89.06
2024-02-27T03:25:00.737Z,89.11
2024-02-27T03:26:00.708Z,89.11
2024-02-27T03:27:00.694Z,89.21
2024-02-27T03:28:00.667Z,89.31
2024-02-27T03:29:00.659Z,89.00
2024-02-27T03:30:00.707Z,89.11
2024-02-27T03:31:00.641Z,89.21
2024-02-27T03:32:00.646Z,89.00
2024-02-27T03:34:00.689Z,89.00
2024-02-27T03:35:00.767Z,89.11
2024-02-27T03:36:00.595Z,89.21
2024-02-27T03:37:00.573Z,89.21
2024-02-27T03:38:00.608Z,89.00
2024-02-27T03:39:00.577Z,89.11
2024-02-27T03:40:00.559Z,89.00
2024-02-27T03:41:00.537Z,89.11
2024-02-27T03:42:00.575Z,89.31
2024-02-27T03:43:00.613Z,89.41
2024-02-27T03:44:00.501Z,89.21
2024-02-27T03:45:00.606Z,89.31
2024-02-27T03:46:00.476Z,89.31
2024-02-27T03:47:00.510Z,89.41
2024-02-27T03:48:00.566Z,89.41
2024-02-27T03:49:00.501Z,89.21
2024-02-27T03:50:00.695Z,89.00
2024-02-27T03:51:00.548Z,89.00
2024-02-27T03:52:00.409Z,89.00
2024-02-27T03:53:00.415Z,89.00
2024-02-27T03:54:00.415Z,88.80
2024-02-27T03:55:00.371Z,88.90
2024-02-27T03:56:00.384Z,88.28
2024-02-27T03:57:00.409Z,88.28
2024-02-27T03:58:00.346Z,88.07
2024-02-27T03:59:00.338Z,88.18
2024-02-27T04:00:00.492Z,87.72
2024-02-27T04:01:00.433Z,87.62
2024-02-27T04:02:00.328Z,87.72
2024-02-27T04:03:00.357Z,88.03
2024-02-27T04:04:00.298Z,87.52
2024-02-27T04:05:00.354Z,87.62
2024-02-27T04:06:00.404Z,87.21
2024-02-27T04:07:00.364Z,87.21
2024-02-27T04:08:00.244Z,87.10
2024-02-27T04:09:00.352Z,87.31
2024-02-27T04:10:00.310Z,87.42
2024-02-27T04:11:00.233Z,87.72
2024-02-27T04:12:00.274Z,87.82
2024-02-27T04:13:00.186Z,87.72
2024-02-27T04:14:00.173Z,88.03
2024-02-27T04:15:00.196Z,88.03
2024-02-27T04:16:00.223Z,88.34
2024-02-27T04:17:00.134Z,88.65
2024-02-27T04:18:00.211Z,88.65
2024-02-27T04:19:00.225Z,88.96
2024-02-27T04:20:00.350Z,89.17
2024-02-27T04:21:00.295Z,89.31
2024-02-27T04:22:00.097Z,89.31
2024-02-27T04:23:00.067Z,89.52
2024-02-27T04:24:00.101Z,89.62
2024-02-27T04:25:00.056Z,89.41
2024-02-27T04:26:00.059Z,89.83
2024-02-27T04:27:00.053Z,89.72
2024-02-27T04:28:00.025Z,89.72
2024-02-27T04:29:00.003Z,89.62
2024-02-27T04:30:00.038Z,89.52
2024-02-27T04:30:59.983Z,89.52
2024-02-27T04:31:59.968Z,89.41
2024-02-27T04:33:00.136Z,89.31
2024-02-27T04:33:59.998Z,89.66
2024-02-27T04:34:59.942Z,89.45
2024-02-27T04:35:59.952Z,89.35
2024-02-27T04:36:59.961Z,89.45
2024-02-27T04:37:59.908Z,89.56
2024-02-27T04:38:59.928Z,89.66
2024-02-27T04:39:59.884Z,89.66
2024-02-27T04:40:59.875Z,89.66
2024-02-27T04:41:59.908Z,89.45
2024-02-27T04:42:59.856Z,89.56
2024-02-27T04:43:59.860Z,89.56
2024-02-27T04:44:59.890Z,89.56
2024-02-27T04:45:59.818Z,89.45
2024-02-27T04:46:59.816Z,89.45
2024-02-27T04:47:59.954Z,89.35
2024-02-27T04:48:59.854Z,89.25
2024-02-27T04:49:59.780Z,89.05
2024-02-27T04:50:59.809Z,89.15
2024-02-27T04:51:59.763Z,89.15
2024-02-27T04:52:59.744Z,89.15
2024-02-27T04:53:59.774Z,89.15
2024-02-27T04:54:59.729Z,89.05
2024-02-27T04:55:59.722Z,89.25
2024-02-27T04:56:59.744Z,89.25
2024-02-27T04:57:59.696Z,89.15
2024-02-27T04:58:59.672Z,89.25
2024-02-27T04:59:59.699Z,89.35
2024-02-27T05:00:59.682Z,89.50
2024-02-27T05:01:59.639Z,89.50
2024-02-27T05:02:59.641Z,89.39
2024-02-27T05:03:59.727Z,89.50
2024-02-27T05:04:59.606Z,89.39
2024-02-27T05:05:59.656Z,89.35
2024-02-27T05:06:59.749Z,89.25
2024-02-27T05:07:59.578Z,89.05
2024-02-27T05:08:59.624Z,89.19
2024-02-27T05:09:59.567Z,89.05
2024-02-27T05:10:59.582Z,89.08
2024-02-27T05:11:59.595Z,89.19
2024-02-27T05:12:59.527Z,89.08
2024-02-27T05:13:59.524Z,89.08
2024-02-27T05:14:59.539Z,89.19
2024-02-27T05:15:59.496Z,89.29
2024-02-27T05:16:59.485Z,89.19
2024-02-27T05:17:59.580Z,89.29
2024-02-27T05:18:59.547Z,89.29
2024-02-27T05:19:59.449Z,88.98
2024-02-27T05:20:59.495Z,89.08
2024-02-27T05:21:59.425Z,89.08
2024-02-27T05:22:59.426Z,89.19
2024-02-27T05:23:59.502Z,89.19
2024-02-27T05:24:59.405Z,89.19
2024-02-27T05:25:59.410Z,89.08
2024-02-27T05:26:59.422Z,88.98
2024-02-27T05:27:59.372Z,89.08
2024-02-27T05:28:59.357Z,89.19
2024-02-27T05:29:59.360Z,89.19
2024-02-27T05:30:59.346Z,89.12
2024-02-27T05:31:59.332Z,89.23
2024-02-27T05:32:59.403Z,89.23
2024-02-27T05:33:59.428Z,88.92
2024-02-27T05:34:59.314Z,88.81
2024-02-27T05:35:59.293Z,88.81
2024-02-27T05:36:59.271Z,88.92
2024-02-27T05:37:59.270Z,88.81
2024-02-27T05:38:59.341Z,88.71
2024-02-27T05:39:59.240Z,88.71
2024-02-27T05:40:59.226Z,88.51
2024-02-27T05:41:59.259Z,88.61
2024-02-27T05:42:59.208Z,88.71
2024-02-27T05:43:59.205Z,88.71
2024-02-27T05:44:59.232Z,88.51
2024-02-27T05:45:59.172Z,88.40
2024-02-27T05:46:59.171Z,88.61
2024-02-27T05:48:01.892Z,88.61
2024-02-27T05:48:59.214Z,88.81
2024-02-27T05:49:59.188Z,88.81
2024-02-27T05:50:59.155Z,88.92
2024-02-27T05:51:59.107Z,88.92
2024-02-27T05:52:59.107Z,88.92
2024-02-27T05:53:59.103Z,88.92
2024-02-27T05:54:59.078Z,88.86
2024-02-27T05:55:59.073Z,88.75
2024-02-27T05:56:59.089Z,88.96
2024-02-27T05:57:59.049Z,89.06
2024-02-27T05:58:59.047Z,89.17
2024-02-27T05:59:59.088Z,88.96
2024-02-27T06:00:59.147Z,89.17
2024-02-27T06:01:59.001Z,89.17
2024-02-27T06:02:59.051Z,89.17
2024-02-27T06:03:59.229Z,89.48
2024-02-27T06:04:58.971Z,89.37
2024-02-27T06:05:59.006Z,89.37
2024-02-27T06:06:59.032Z,89.37
2024-02-27T06:07:58.959Z,89.37
2024-02-27T06:08:58.949Z,89.48
2024-02-27T06:09:58.916Z,89.52
2024-02-27T06:10:58.941Z,89.52
2024-02-27T06:11:59.703Z,89.52
2024-02-27T06:12:58.879Z,89.62
2024-02-27T06:13:58.884Z,89.62
2024-02-27T06:14:58.892Z,89.72
2024-02-27T06:15:59.042Z,89.72
2024-02-27T06:16:58.843Z,89.83
2024-02-27T06:17:58.914Z,89.83
2024-02-27T06:18:58.883Z,89.93
2024-02-27T06:19:58.803Z,90.14
2024-02-27T06:20:58.819Z,90.24
2024-02-27T06:21:58.792Z,90.24
2024-02-27T06:22:58.797Z,90.35
2024-02-27T06:23:58.794Z,90.45
2024-02-27T06:24:58.760Z,90.45
2024-02-27T06:25:58.754Z,90.55
2024-02-27T06:26:58.778Z,90.66
2024-02-27T06:27:58.739Z,90.66
2024-02-27T06:28:58.724Z,90.55
2024-02-27T06:29:58.745Z,90.55
2024-02-27T06:30:58.711Z,90.55
2024-02-27T06:32:00.721Z,90.66
2024-02-27T06:32:58.753Z,90.86
2024-02-27T06:33:58.784Z,90.86
2024-02-27T06:34:58.666Z,90.97
2024-02-27T06:35:58.666Z,91.07
2024-02-27T06:36:58.639Z,90.97
2024-02-27T06:37:58.613Z,90.76
2024-02-27T06:38:58.696Z,90.45
2024-02-27T06:39:58.595Z,90.55
2024-02-27T06:40:58.600Z,90.86
2024-02-27T06:41:58.621Z,90.86
2024-02-27T06:42:58.566Z,90.97
2024-02-27T06:43:58.548Z,91.17
2024-02-27T06:44:58.568Z,91.27
2024-02-27T06:45:58.530Z,91.48
2024-02-27T06:46:58.521Z,91.33
2024-02-27T06:47:58.620Z,91.44
2024-02-27T06:49:07.450Z,91.58
2024-02-27T06:49:58.610Z,91.44
2024-02-27T06:50:58.499Z,91.44
2024-02-27T06:51:58.472Z,91.44
2024-02-27T06:52:58.465Z,91.33
2024-02-27T06:53:58.455Z,91.44
2024-02-27T06:54:58.428Z,91.44
2024-02-27T06:55:58.422Z,91.44
2024-02-27T06:56:58.443Z,91.44
2024-02-27T06:57:58.406Z,91.54
2024-02-27T06:58:58.386Z,91.54
2024-02-27T06:59:58.412Z,91.65
2024-02-27T07:00:58.408Z,91.60
2024-02-27T07:01:58.353Z,91.60
2024-02-27T07:02:58.389Z,91.29
2024-02-27T07:03:58.443Z,91.09
2024-02-27T07:04:58.322Z,90.88
2024-02-27T07:05:58.382Z,90.67
2024-02-27T07:06:58.361Z,90.47
2024-02-27T07:07:58.279Z,90.26
2024-02-27T07:08:58.294Z,89.95
2024-02-27T07:09:58.322Z,89.95
2024-02-27T07:10:58.277Z,89.95
2024-02-27T07:11:58.274Z,90.16
2024-02-27T07:12:58.231Z,89.95
2024-02-27T07:13:58.240Z,90.05
2024-02-27T07:14:58.262Z,90.05
2024-02-27T07:15:58.248Z,90.16
2024-02-27T07:16:58.206Z,90.26
2024-02-27T07:17:58.227Z,90.16
2024-02-27T07:18:58.342Z,89.95
2024-02-27T07:19:58.154Z,89.95
2024-02-27T07:20:58.284Z,89.75
2024-02-27T07:21:58.138Z,89.75
2024-02-27T07:22:58.125Z,89.75
2024-02-27T07:23:58.181Z,89.64
2024-02-27T07:24:58.100Z,89.64
2024-02-27T07:25:58.124Z,89.44
2024-02-27T07:26:58.129Z,89.19
2024-02-27T07:27:58.205Z,89.19
2024-02-27T07:28:58.156Z,89.19
2024-02-27T07:29:58.239Z,89.19
2024-02-27T07:30:58.067Z,89.19
2024-02-27T07:31:58.034Z,88.78
2024-02-27T07:32:58.189Z,88.78
2024-02-27T07:33:58.143Z,88.63
2024-02-27T07:34:58.088Z,88.42
2024-02-27T07:35:58.113Z,88.32
2024-02-27T07:36:58.049Z,88.32
2024-02-27T07:37:58.247Z,88.22
2024-02-27T07:38:58.223Z,88.22
2024-02-27T07:39:57.958Z,88.07
2024-02-27T07:40:57.957Z,87.56
2024-02-27T07:41:58.046Z,87.15
2024-02-27T07:42:57.913Z,87.15
2024-02-27T07:43:57.902Z,87.18
2024-02-27T07:44:57.968Z,87.18
2024-02-27T07:45:57.884Z,87.29
2024-02-27T07:46:57.872Z,87.50
2024-02-27T07:47:57.907Z,87.56
2024-02-27T07:48:57.929Z,86.98
2024-02-27T07:49:57.839Z,87.04
2024-02-27T07:50:57.832Z,87.15
2024-02-27T07:51:57.843Z,86.84
2024-02-27T07:52:57.943Z,86.94
2024-02-27T07:53:57.908Z,87.25
2024-02-27T07:54:57.781Z,87.45
2024-02-27T07:55:57.785Z,87.45
2024-02-27T07:56:57.777Z,87.31
2024-02-27T07:57:57.798Z,87.10
2024-02-27T07:58:57.804Z,86.70
2024-02-27T07:59:59.266Z,86.79
2024-02-27T08:00:57.928Z,86.59
2024-02-27T08:01:57.735Z,86.70
2024-02-27T08:02:57.725Z,86.59
2024-02-27T08:03:57.789Z,86.28
2024-02-27T08:04:57.670Z,85.15
2024-02-27T08:05:57.706Z,85.60
2024-02-27T08:06:58.124Z,85.77
2024-02-27T08:07:58.349Z,85.97
2024-02-27T08:08:57.893Z,85.97
2024-02-27T08:09:57.907Z,85.87
2024-02-27T08:10:57.969Z,85.87
2024-02-27T08:11:57.928Z,85.66
2024-02-27T08:12:58.041Z,85.04
2024-02-27T08:13:57.770Z,84.94
2024-02-27T08:14:57.877Z,85.46
2024-02-27T08:15:57.611Z,85.25
2024-02-27T08:16:57.538Z,84.94
2024-02-27T08:17:57.688Z,85.15
2024-02-27T08:18:57.725Z,85.15
2024-02-27T08:19:57.530Z,85.15
2024-02-27T08:20:58.547Z,85.15
2024-02-27T08:21:57.485Z,85.46
2024-02-27T08:22:57.474Z,85.77
2024-02-27T08:23:57.456Z,85.46
2024-02-27T08:24:57.498Z,85.15
2024-02-27T08:25:57.457Z,85.35
2024-02-27T08:27:00.778Z,85.52
2024-02-27T08:27:57.474Z,85.41
2024-02-27T08:28:57.404Z,85.00
2024-02-27T08:29:57.406Z,84.80
2024-02-27T08:30:57.421Z,85.21
2024-02-27T08:31:57.371Z,85.00
2024-02-27T08:32:58.912Z,85.52
2024-02-27T08:33:57.693Z,85.21
2024-02-27T08:34:57.495Z,85.00
2024-02-27T08:35:57.331Z,84.18
2024-02-27T08:36:57.336Z,84.49
2024-02-27T08:37:57.378Z,84.80
2024-02-27T08:38:57.346Z,84.49
2024-02-27T08:39:57.285Z,84.32
2024-02-27T08:40:57.307Z,84.22
2024-02-27T08:41:57.318Z,84.42
2024-02-27T08:42:57.260Z,84.53
2024-02-27T08:43:57.249Z,84.83
2024-02-27T08:44:57.237Z,84.80
2024-02-27T08:45:57.235Z,84.90
2024-02-27T08:46:57.209Z,84.59
2024-02-27T08:47:57.285Z,84.24
2024-02-27T08:48:57.271Z,83.83
2024-02-27T08:49:57.237Z,83.42
2024-02-27T08:50:57.175Z,83.31
2024-02-27T08:51:57.162Z,83.42
2024-02-27T08:52:57.150Z,83.42
2024-02-27T08:53:57.139Z,83.52
2024-02-27T08:54:57.125Z,83.63
2024-02-27T08:55:57.139Z,83.42
2024-02-27T08:56:57.108Z,83.63
2024-02-27T08:57:57.099Z,83.52
2024-02-27T08:58:57.174Z,83.22
2024-02-27T08:59:57.071Z,82.91
2024-02-27T09:00:57.114Z,83.01
2024-02-27T09:01:57.053Z,83.42
2024-02-27T09:02:57.050Z,83.52
2024-02-27T09:03:57.105Z,83.52
2024-02-27T09:04:57.021Z,83.31
2024-02-27T09:05:57.041Z,83.56
2024-02-27T09:06:57.137Z,83.94
2024-02-27T09:07:57.005Z,83.42
2024-02-27T09:08:56.980Z,83.63
2024-02-27T09:09:57.004Z,83.63
2024-02-27T09:10:56.990Z,83.38
2024-02-27T09:11:56.940Z,83.17
2024-02-27T09:12:56.935Z,83.28
2024-02-27T09:13:56.933Z,83.24
2024-02-27T09:14:56.914Z,82.83
2024-02-27T09:15:56.951Z,82.52
2024-02-27T09:16:56.887Z,81.90
2024-02-27T09:17:56.923Z,81.18
2024-02-27T09:18:56.991Z,81.18
2024-02-27T09:19:56.914Z,80.98
2024-02-27T09:20:56.847Z,81.59
2024-02-27T09:21:56.831Z,81.80
2024-02-27T09:22:56.831Z,81.80
2024-02-27T09:23:56.811Z,81.59
2024-02-27T09:24:56.800Z,82.11
2024-02-27T09:25:56.805Z,81.80
2024-02-27T09:26:56.781Z,81.80
2024-02-27T09:27:56.851Z,81.59
2024-02-27T09:28:56.755Z,81.49
2024-02-27T09:29:56.746Z,81.56
2024-02-27T09:30:56.749Z,81.25
2024-02-27T09:31:56.734Z,81.25
2024-02-27T09:32:56.805Z,81.25
2024-02-27T09:33:56.745Z,81.04
2024-02-27T09:34:56.865Z,80.84
2024-02-27T09:35:56.683Z,80.84
2024-02-27T09:36:56.664Z,81.25
2024-02-27T09:37:58.898Z,81.35
2024-02-27T09:38:56.694Z,81.14
2024-02-27T09:39:59.583Z,80.63
2024-02-27T09:40:56.638Z,80.22
2024-02-27T09:41:56.618Z,80.12
2024-02-27T09:42:56.642Z,80.63
2024-02-27T09:43:55.596Z,80.63
2024-02-27T09:44:55.515Z,80.52
2024-02-27T09:45:56.631Z,80.18
2024-02-27T09:46:56.567Z,79.46
2024-02-27T09:47:56.592Z,79.57
2024-02-27T09:48:56.708Z,79.98
2024-02-27T09:49:56.696Z,80.18
2024-02-27T09:50:56.611Z,80.18
2024-02-27T09:51:56.515Z,80.04
2024-02-27T09:52:56.512Z,79.77
2024-02-27T09:53:56.490Z,79.63
2024-02-27T09:54:56.485Z,79.73
2024-02-27T09:55:56.480Z,79.73
2024-02-27T09:56:56.461Z,79.57
2024-02-27T09:57:56.557Z,80.04
2024-02-27T09:58:56.447Z,80.15
2024-02-27T09:59:56.527Z,79.43
2024-02-27T10:00:56.507Z,79.32
2024-02-27T10:01:56.663Z,79.87
2024-02-27T10:02:56.404Z,79.26
2024-02-27T10:03:56.438Z,79.05
2024-02-27T10:04:56.370Z,79.77
2024-02-27T10:05:56.561Z,79.66
2024-02-27T10:06:56.485Z,79.66
2024-02-27T10:07:56.530Z,80.08
2024-02-27T10:08:56.315Z,80.08
2024-02-27T10:09:56.617Z,80.24
2024-02-27T10:10:56.332Z,79.36
2024-02-27T10:11:56.294Z,79.84
2024-02-27T10:12:56.293Z,79.53
2024-02-27T10:13:56.328Z,78.81
2024-02-27T10:14:56.449Z,79.11
2024-02-27T10:15:56.255Z,79.43
2024-02-27T10:16:56.235Z,79.43
2024-02-27T10:17:56.313Z,79.01
2024-02-27T10:18:56.425Z,78.91
2024-02-27T10:19:56.440Z,79.63
2024-02-27T10:20:56.182Z,79.84
2024-02-27T10:21:56.193Z,79.43
2024-02-27T10:22:56.172Z,79.29
2024-02-27T10:23:56.148Z,79.39
2024-02-27T10:24:56.159Z,78.77
2024-02-27T10:25:56.134Z,78.88
2024-02-27T10:26:56.125Z,78.97
2024-02-27T10:27:56.113Z,78.16
2024-02-27T10:28:56.105Z,79.11
2024-02-27T10:29:56.096Z,79.49
2024-02-27T10:30:56.111Z,79.69
2024-02-27T10:31:56.105Z,79.18
2024-02-27T10:32:56.136Z,78.77
2024-02-27T10:33:56.229Z,78.46
2024-02-27T10:34:56.364Z,78.57
2024-02-27T10:35:56.069Z,78.74
2024-02-27T10:36:56.101Z,78.63
2024-02-27T10:37:56.012Z,78.63
2024-02-27T10:38:55.996Z,78.43
2024-02-27T10:39:55.998Z,78.88
2024-02-27T10:40:56.039Z,78.67
2024-02-27T10:41:56.019Z,79.18
2024-02-27T10:42:55.983Z,79.49
2024-02-27T10:44:01.795Z,79.49
2024-02-27T10:44:55.946Z,79.69
2024-02-27T10:45:55.957Z,80.10
2024-02-27T10:46:55.905Z,79.25
2024-02-27T10:47:55.924Z,77.81
2024-02-27T10:48:56.053Z,77.85
2024-02-27T10:49:56.237Z,77.85
2024-02-27T10:50:55.854Z,78.05
2024-02-27T10:51:55.925Z,78.16
2024-02-27T10:52:55.848Z,78.36
2024-02-27T10:53:55.837Z,78.77
2024-02-27T10:54:55.858Z,78.97
2024-02-27T10:55:55.805Z,79.39
2024-02-27T10:56:55.811Z,78.77
2024-02-27T10:57:55.866Z,78.77
2024-02-27T10:58:55.778Z,78.97
2024-02-27T10:59:55.761Z,79.39
2024-02-27T11:00:55.841Z,79.80
2024-02-27T11:01:55.824Z,79.18
2024-02-27T11:02:55.774Z,78.67
2024-02-27T11:03:55.841Z,78.88
2024-02-27T11:04:55.771Z,78.57
2024-02-27T11:05:55.957Z,78.67
2024-02-27T11:06:55.916Z,79.04
2024-02-27T11:07:55.734Z,79.25
2024-02-27T11:08:55.684Z,78.53
2024-02-27T11:09:55.666Z,77.19
2024-02-27T11:10:55.884Z,77.57
2024-02-27T11:11:55.679Z,76.85
2024-02-27T11:12:55.667Z,76.99
2024-02-27T11:13:55.645Z,77.30
2024-02-27T11:14:55.605Z,77.36
2024-02-27T11:15:55.642Z,77.26
2024-02-27T11:16:55.633Z,77.26
2024-02-27T11:17:55.716Z,77.16
2024-02-27T11:18:55.735Z,76.85
2024-02-27T11:19:55.729Z,76.81
2024-02-27T11:20:55.554Z,76.10
2024-02-27T11:21:55.620Z,75.89
2024-02-27T11:22:55.536Z,75.48
2024-02-27T11:23:55.506Z,75.79
2024-02-27T11:24:55.565Z,75.83
2024-02-27T11:25:55.480Z,76.03
2024-02-27T11:26:54.464Z,75.83
2024-02-27T11:27:54.410Z,76.03
2024-02-27T11:28:55.457Z,76.30
2024-02-27T11:29:55.450Z,76.51
2024-02-27T11:30:55.480Z,76.26
2024-02-27T11:31:55.412Z,75.55
2024-02-27T11:32:55.461Z,74.93
2024-02-27T11:33:55.578Z,74.63
2024-02-27T11:34:55.514Z,74.32
2024-02-27T11:35:55.381Z,74.83
2024-02-27T11:36:55.373Z,75.14
2024-02-27T11:37:55.346Z,75.14
2024-02-27T11:38:55.351Z,74.73
2024-02-27T11:39:55.440Z,74.93
2024-02-27T11:40:55.354Z,75.04
2024-02-27T11:41:55.325Z,75.14
2024-02-27T11:42:55.318Z,75.04
2024-02-27T11:43:55.302Z,74.42
2024-02-27T11:44:55.267Z,73.98
2024-02-27T11:45:55.352Z,73.98
2024-02-27T11:46:55.241Z,73.77
2024-02-27T11:47:55.735Z,73.36
2024-02-27T11:48:55.385Z,73.26
2024-02-27T11:49:55.315Z,73.26
2024-02-27T11:50:55.218Z,73.12
2024-02-27T11:51:55.249Z,73.22
2024-02-27T11:52:55.190Z,73.22
2024-02-27T11:53:55.311Z,73.50
2024-02-27T11:54:55.226Z,72.68
2024-02-27T11:55:55.651Z,72.88
2024-02-27T11:56:55.128Z,73.09
2024-02-27T11:57:55.128Z,73.09
2024-02-27T11:58:55.177Z,73.40
2024-02-27T11:59:55.114Z,73.40
2024-02-27T12:00:55.470Z,73.57
2024-02-27T12:01:56.660Z,73.67
2024-02-27T12:02:55.078Z,74.38
2024-02-27T12:03:55.138Z,74.79
2024-02-27T12:04:55.208Z,74.76
2024-02-27T12:05:55.062Z,74.86
2024-02-27T12:06:55.157Z,74.25
2024-02-27T12:07:55.404Z,74.25
2024-02-27T12:08:55.112Z,74.76
2024-02-27T12:09:55.070Z,74.66
2024-02-27T12:10:55.073Z,74.76
2024-02-27T12:11:55.053Z,75.17
2024-02-27T12:12:55.001Z,74.66
2024-02-27T12:13:54.975Z,74.86
2024-02-27T12:14:54.941Z,74.96
2024-02-27T12:15:54.964Z,74.66
2024-02-27T12:16:54.920Z,74.15
2024-02-27T12:17:55.160Z,74.42
2024-02-27T12:18:54.999Z,74.21
2024-02-27T12:19:54.976Z,74.21
2024-02-27T12:20:54.889Z,73.91
2024-02-27T12:21:54.995Z,73.91
2024-02-27T12:22:55.105Z,73.91
2024-02-27T12:23:54.839Z,73.80
2024-02-27T12:24:54.943Z,74.18
2024-02-27T12:25:54.859Z,73.60
2024-02-27T12:26:54.831Z,73.50
2024-02-27T12:27:55.102Z,73.29
2024-02-27T12:28:54.797Z,73.70
2024-02-27T12:29:54.784Z,74.21
2024-02-27T12:30:54.794Z,74.01
2024-02-27T12:31:54.761Z,74.11
2024-02-27T12:32:54.832Z,74.21
2024-02-27T12:33:54.908Z,74.01
2024-02-27T12:34:54.774Z,74.01
2024-02-27T12:35:54.719Z,74.11
2024-02-27T12:36:54.824Z,73.33
2024-02-27T12:37:54.695Z,73.63
2024-02-27T12:38:54.690Z,74.15
2024-02-27T12:39:54.703Z,73.84
2024-02-27T12:40:54.702Z,73.57
2024-02-27T12:41:54.655Z,73.67
2024-02-27T12:42:54.720Z,74.18
2024-02-27T12:43:54.624Z,74.49
2024-02-27T12:44:54.614Z,75.10
2024-02-27T12:45:54.669Z,75.10
2024-02-27T12:46:54.609Z,75.20
2024-02-27T12:47:54.674Z,74.90
2024-02-27T12:48:54.725Z,75.00
2024-02-27T12:49:54.707Z,75.00
2024-02-27T12:50:54.556Z,74.86
2024-02-27T12:51:54.544Z,74.96
2024-02-27T12:53:01.698Z,75.07
2024-02-27T12:53:54.520Z,74.69
2024-02-27T12:54:54.523Z,74.90
2024-02-27T12:55:54.504Z,74.59
2024-02-27T12:56:54.489Z,74.79
2024-02-27T12:57:54.475Z,74.38
2024-02-27T12:58:54.489Z,74.08
2024-02-27T12:59:54.453Z,73.87
2024-02-27T13:00:54.520Z,74.21
2024-02-27T13:01:54.431Z,74.53
2024-02-27T13:02:54.432Z,74.83
2024-02-27T13:03:54.492Z,74.53
2024-02-27T13:04:54.540Z,74.53
2024-02-27T13:05:54.435Z,74.83
2024-02-27T13:06:54.440Z,74.69
2024-02-27T13:07:54.493Z,74.79
2024-02-27T13:08:54.356Z,74.38
2024-02-27T13:09:54.348Z,74.62
2024-02-27T13:10:54.386Z,74.42
2024-02-27T13:11:54.331Z,75.03
2024-02-27T13:12:54.316Z,74.83
2024-02-27T13:13:54.300Z,74.73
2024-02-27T13:14:54.300Z,74.21
2024-02-27T13:15:54.345Z,74.83
2024-02-27T13:16:54.273Z,75.07
2024-02-27T13:17:54.390Z,75.72
2024-02-27T13:18:54.396Z,76.03
2024-02-27T13:19:54.392Z,76.23
2024-02-27T13:20:54.236Z,75.58
2024-02-27T13:21:54.273Z,75.51
2024-02-27T13:23:00.108Z,76.03
2024-02-27T13:23:54.204Z,76.44
2024-02-27T13:24:54.249Z,76.03
2024-02-27T13:25:54.594Z,76.13
2024-02-27T13:26:54.165Z,75.92
2024-02-27T13:27:54.152Z,75.92
2024-02-27T13:28:54.160Z,76.09
2024-02-27T13:29:54.163Z,75.99
2024-02-27T13:30:54.183Z,75.68
2024-02-27T13:31:54.125Z,75.68
2024-02-27T13:32:54.195Z,75.95
2024-02-27T13:33:54.178Z,75.75
2024-02-27T13:34:54.201Z,74.53
2024-02-27T13:35:54.205Z,75.14
2024-02-27T13:36:54.097Z,75.14
2024-02-27T13:37:54.051Z,74.93
2024-02-27T13:38:54.036Z,74.83
2024-02-27T13:39:54.079Z,74.83
2024-02-27T13:40:54.019Z,74.32
2024-02-27T13:41:54.022Z,75.14
2024-02-27T13:42:54.058Z,74.73
2024-02-27T13:43:53.980Z,74.83
2024-02-27T13:44:54.007Z,74.42
2024-02-27T13:45:54.046Z,74.83
2024-02-27T13:46:53.950Z,75.24
2024-02-27T13:47:53.990Z,75.03
2024-02-27T13:48:54.030Z,75.24
2024-02-27T13:49:53.969Z,75.65
2024-02-27T13:50:53.907Z,74.83
2024-02-27T13:51:53.950Z,74.42
2024-02-27T13:52:53.889Z,75.07
2024-02-27T13:53:53.890Z,75.17
2024-02-27T13:54:53.926Z,75.17
2024-02-27T13:55:53.893Z,75.38
2024-02-27T13:56:53.839Z,75.58
2024-02-27T13:57:53.914Z,75.48
2024-02-27T13:58:53.820Z,75.24
2024-02-27T13:59:53.867Z,75.34
2024-02-27T14:00:53.944Z,75.03
2024-02-27T14:01:53.861Z,74.42
2024-02-27T14:02:53.831Z,74.42
2024-02-27T14:03:53.865Z,74.73
2024-02-27T14:04:53.754Z,74.53
2024-02-27T14:05:54.083Z,75.24
2024-02-27T14:06:53.807Z,74.93
2024-02-27T14:07:53.723Z,74.83
2024-02-27T14:08:53.730Z,74.96
2024-02-27T14:09:53.747Z,75.38
2024-02-27T14:10:53.727Z,74.76
2024-02-27T14:11:53.707Z,75.07
2024-02-27T14:12:53.789Z,74.96
2024-02-27T14:13:58.167Z,75.00
2024-02-27T14:14:53.665Z,75.62
2024-02-27T14:15:53.716Z,75.82
2024-02-27T14:16:53.650Z,75.92
2024-02-27T14:17:53.693Z,75.86
2024-02-27T14:18:53.736Z,76.26
2024-02-27T14:19:53.711Z,76.98
2024-02-27T14:20:53.601Z,76.26
2024-02-27T14:21:53.651Z,76.17
2024-02-27T14:22:53.588Z,76.37
2024-02-27T14:23:53.577Z,76.58
2024-02-27T14:24:53.653Z,75.96
2024-02-27T14:25:53.534Z,76.17
2024-02-27T14:26:53.529Z,76.17
2024-02-27T14:27:53.528Z,76.26
2024-02-27T14:28:53.519Z,76.13
2024-02-27T14:29:53.555Z,75.82
2024-02-27T14:30:53.566Z,76.33
2024-02-27T14:31:53.482Z,76.03
2024-02-27T14:32:53.509Z,75.72
2024-02-27T14:33:53.637Z,75.79
2024-02-27T14:34:53.518Z,75.07
2024-02-27T14:35:53.417Z,75.31
2024-02-27T14:36:53.505Z,75.51
2024-02-27T14:37:53.407Z,75.72
2024-02-27T14:38:53.391Z,75.41
2024-02-27T14:39:53.451Z,75.31
2024-02-27T14:40:53.380Z,75.45
2024-02-27T14:41:53.371Z,76.06
2024-02-27T14:42:53.425Z,76.37
2024-02-27T14:43:53.437Z,76.26
2024-02-27T14:44:53.386Z,76.51
2024-02-27T14:45:53.453Z,76.81
2024-02-27T14:46:53.356Z,77.02
2024-02-27T14:47:53.441Z,76.78
2024-02-27T14:48:53.407Z,77.19
2024-02-27T14:49:53.285Z,76.88
2024-02-27T14:50:53.266Z,76.88
2024-02-27T14:51:53.317Z,76.58
2024-02-27T14:52:53.247Z,76.47